sensor_id;sensor_type;location;lat;lon;timestamp;pressure;altitude;pressure_sealevel;temperature;humidity
72395;BME280;60384;48.152;11.614;2023-03-19T00:01:26;95305.91;;;11.75;45.86
72395;BME280;60384;48.152;11.614;2023-03-19T00:04:28;95312.81;;;11.76;46.29
72395;BME280;60384;48.152;11.614;2023-03-19T00:07:31;95317.72;;;11.74;46.23
72395;BME280;60384;48.152;11.614;2023-03-19T00:10:37;95318.38;;;11.71;45.23
72395;BME280;60384;48.152;11.614;2023-03-19T00:13:39;95307.19;;;11.69;45.79
72395;BME280;60384;48.152;11.614;2023-03-19T00:16:40;95309.00;;;11.65;45.51
72395;BME280;60384;48.152;11.614;2023-03-19T00:19:42;95323.03;;;11.62;45.41
72395;BME280;60384;48.152;11.614;2023-03-19T00:22:45;95315.34;;;11.60;45.62
72395;BME280;60384;48.152;11.614;2023-03-19T00:25:48;95312.34;;;11.62;46.28
72395;BME280;60384;48.152;11.614;2023-03-19T00:28:53;95304.31;;;11.62;45.92
72395;BME280;60384;48.152;11.614;2023-03-19T00:31:55;95304.97;;;11.58;45.07
72395;BME280;60384;48.152;11.614;2023-03-19T00:34:57;95311.41;;;11.57;45.75
72395;BME280;60384;48.152;11.614;2023-03-19T00:38:00;95319.00;;;11.55;45.71
72395;BME280;60384;48.152;11.614;2023-03-19T00:41:05;95313.19;;;11.53;46.26
72395;BME280;60384;48.152;11.614;2023-03-19T00:44:07;95318.56;;;11.53;46.16
72395;BME280;60384;48.152;11.614;2023-03-19T00:47:09;95325.31;;;11.51;45.64
72395;BME280;60384;48.152;11.614;2023-03-19T00:50:11;95324.13;;;11.48;46.43
72395;BME280;60384;48.152;11.614;2023-03-19T00:53:15;95323.53;;;11.43;46.08
72395;BME280;60384;48.152;11.614;2023-03-19T00:56:17;95325.31;;;11.39;45.95
72395;BME280;60384;48.152;11.614;2023-03-19T00:59:20;95324.38;;;11.35;46.75
72395;BME280;60384;48.152;11.614;2023-03-19T01:02:22;95325.84;;;11.32;46.11
72395;BME280;60384;48.152;11.614;2023-03-19T01:05:24;95324.59;;;11.30;46.51
72395;BME280;60384;48.152;11.614;2023-03-19T01:08:28;95321.50;;;11.28;46.35
72395;BME280;60384;48.152;11.614;2023-03-19T01:11:31;95326.69;;;11.24;46.30
72395;BME280;60384;48.152;11.614;2023-03-19T01:14:33;95325.91;;;11.24;46.31
72395;BME280;60384;48.152;11.614;2023-03-19T01:17:35;95327.38;;;11.21;46.34
72395;BME280;60384;48.152;11.614;2023-03-19T01:20:39;95322.66;;;11.18;46.79
72395;BME280;60384;48.152;11.614;2023-03-19T01:23:43;95319.09;;;11.14;46.44
72395;BME280;60384;48.152;11.614;2023-03-19T01:26:44;95322.41;;;11.11;46.52
72395;BME280;60384;48.152;11.614;2023-03-19T01:29:57;95326.84;;;11.07;46.85
72395;BME280;60384;48.152;11.614;2023-03-19T01:33:18;95326.25;;;11.01;46.81
72395;BME280;60384;48.152;11.614;2023-03-19T01:36:27;95323.22;;;10.91;46.70
72395;BME280;60384;48.152;11.614;2023-03-19T01:39:35;95335.28;;;10.76;46.47
72395;BME280;60384;48.152;11.614;2023-03-19T01:42:51;95334.09;;;10.65;47.03
72395;BME280;60384;48.152;11.614;2023-03-19T01:46:18;95327.03;;;10.60;46.93
72395;BME280;60384;48.152;11.614;2023-03-19T01:49:30;95326.59;;;10.58;46.99
72395;BME280;60384;48.152;11.614;2023-03-19T01:52:50;95323.13;;;10.58;46.44
72395;BME280;60384;48.152;11.614;2023-03-19T01:56:03;95328.31;;;10.54;46.80
72395;BME280;60384;48.152;11.614;2023-03-19T01:59:30;95337.31;;;10.50;46.58
72395;BME280;60384;48.152;11.614;2023-03-19T02:03:06;95343.16;;;10.43;46.47
72395;BME280;60384;48.152;11.614;2023-03-19T02:06:18;95335.69;;;10.37;46.45
72395;BME280;60384;48.152;11.614;2023-03-19T02:09:21;95336.00;;;10.35;47.02
72395;BME280;60384;48.152;11.614;2023-03-19T02:12:26;95339.78;;;10.34;47.15
72395;BME280;60384;48.152;11.614;2023-03-19T02:15:28;95341.66;;;10.33;47.13
72395;BME280;60384;48.152;11.614;2023-03-19T02:18:30;95345.44;;;10.32;46.93
72395;BME280;60384;48.152;11.614;2023-03-19T02:21:33;95352.66;;;10.32;46.74
72395;BME280;60384;48.152;11.614;2023-03-19T02:24:38;95351.88;;;10.31;47.04
72395;BME280;60384;48.152;11.614;2023-03-19T02:27:48;95330.84;;;10.30;46.85
72395;BME280;60384;48.152;11.614;2023-03-19T02:30:50;95325.50;;;10.30;47.22
72395;BME280;60384;48.152;11.614;2023-03-19T02:33:57;95323.28;;;10.32;46.79
72395;BME280;60384;48.152;11.614;2023-03-19T02:37:03;95323.28;;;10.32;46.55
72395;BME280;60384;48.152;11.614;2023-03-19T02:40:08;95337.41;;;10.32;46.45
72395;BME280;60384;48.152;11.614;2023-03-19T02:43:13;95329.09;;;10.34;46.94
72395;BME280;60384;48.152;11.614;2023-03-19T02:46:15;95339.78;;;10.34;46.48
72395;BME280;60384;48.152;11.614;2023-03-19T02:49:17;95341.97;;;10.32;46.98
72395;BME280;60384;48.152;11.614;2023-03-19T02:52:20;95343.41;;;10.29;46.84
72395;BME280;60384;48.152;11.614;2023-03-19T02:55:21;95350.16;;;10.27;46.75
72395;BME280;60384;48.152;11.614;2023-03-19T02:58:25;95350.34;;;10.22;46.99
72395;BME280;60384;48.152;11.614;2023-03-19T03:01:27;95354.13;;;10.21;46.91
72395;BME280;60384;48.152;11.614;2023-03-19T03:04:29;95354.47;;;10.19;47.03
72395;BME280;60384;48.152;11.614;2023-03-19T03:07:31;95355.56;;;10.18;47.13
72395;BME280;60384;48.152;11.614;2023-03-19T03:10:33;95357.75;;;10.16;47.23
72395;BME280;60384;48.152;11.614;2023-03-19T03:13:36;95356.16;;;10.15;46.93
72395;BME280;60384;48.152;11.614;2023-03-19T03:16:38;95373.25;;;10.14;47.31
72395;BME280;60384;48.152;11.614;2023-03-19T03:19:40;95367.47;;;10.12;47.23
72395;BME280;60384;48.152;11.614;2023-03-19T03:22:42;95378.00;;;10.09;47.17
72395;BME280;60384;48.152;11.614;2023-03-19T03:25:47;95375.97;;;10.06;47.14
72395;BME280;60384;48.152;11.614;2023-03-19T03:28:50;95381.19;;;10.02;47.14
72395;BME280;60384;48.152;11.614;2023-03-19T03:31:52;95370.34;;;9.99;46.87
72395;BME280;60384;48.152;11.614;2023-03-19T03:34:54;95371.00;;;9.95;47.14
72395;BME280;60384;48.152;11.614;2023-03-19T03:37:56;95373.19;;;9.93;46.95
72395;BME280;60384;48.152;11.614;2023-03-19T03:40:58;95374.59;;;9.91;47.25
72395;BME280;60384;48.152;11.614;2023-03-19T03:44:02;95369.59;;;9.89;47.20
72395;BME280;60384;48.152;11.614;2023-03-19T03:47:07;95369.59;;;9.89;47.44
72395;BME280;60384;48.152;11.614;2023-03-19T03:50:09;95378.41;;;9.90;47.33
72395;BME280;60384;48.152;11.614;2023-03-19T03:53:13;95376.81;;;9.89;47.34
72395;BME280;60384;48.152;11.614;2023-03-19T03:56:15;95379.00;;;9.87;46.78
72395;BME280;60384;48.152;11.614;2023-03-19T03:59:18;95384.66;;;9.85;47.55
72395;BME280;60384;48.152;11.614;2023-03-19T04:02:21;95391.13;;;9.84;47.65
72395;BME280;60384;48.152;11.614;2023-03-19T04:05:23;95396.47;;;9.84;47.16
72395;BME280;60384;48.152;11.614;2023-03-19T04:08:25;95386.56;;;9.85;47.46
72395;BME280;60384;48.152;11.614;2023-03-19T04:11:28;95396.47;;;9.84;47.49
72395;BME280;60384;48.152;11.614;2023-03-19T04:14:31;95398.66;;;9.82;47.42
72395;BME280;60384;48.152;11.614;2023-03-19T04:17:34;95390.16;;;9.80;47.21
72395;BME280;60384;48.152;11.614;2023-03-19T04:20:36;95389.56;;;9.83;47.53
72395;BME280;60384;48.152;11.614;2023-03-19T04:23:38;95396.78;;;9.83;47.32
72395;BME280;60384;48.152;11.614;2023-03-19T04:26:40;95405.56;;;9.83;47.55
72395;BME280;60384;48.152;11.614;2023-03-19T04:29:43;95403.19;;;9.82;47.49
72395;BME280;60384;48.152;11.614;2023-03-19T04:32:46;95405.09;;;9.81;47.51
72395;BME280;60384;48.152;11.614;2023-03-19T04:35:49;95402.91;;;9.83;47.54
72395;BME280;60384;48.152;11.614;2023-03-19T04:38:51;95411.19;;;9.82;47.69
72395;BME280;60384;48.152;11.614;2023-03-19T04:41:54;95405.72;;;9.78;47.54
72395;BME280;60384;48.152;11.614;2023-03-19T04:45:21;95417.50;;;9.77;47.40
72395;BME280;60384;48.152;11.614;2023-03-19T04:48:23;95416.72;;;9.77;47.51
72395;BME280;60384;48.152;11.614;2023-03-19T04:51:26;95417.50;;;9.77;47.67
72395;BME280;60384;48.152;11.614;2023-03-19T04:54:28;95413.72;;;9.78;47.59
72395;BME280;60384;48.152;11.614;2023-03-19T04:57:31;95415.31;;;9.79;47.83
72395;BME280;60384;48.152;11.614;2023-03-19T05:00:35;95418.72;;;9.80;47.76
72395;BME280;60384;48.152;11.614;2023-03-19T05:03:39;95419.84;;;9.79;47.78
72395;BME280;60384;48.152;11.614;2023-03-19T05:06:41;95429.09;;;9.81;47.66
72395;BME280;60384;48.152;11.614;2023-03-19T05:09:43;95421.09;;;9.81;47.89
72395;BME280;60384;48.152;11.614;2023-03-19T05:12:46;95428.78;;;9.83;47.62
72395;BME280;60384;48.152;11.614;2023-03-19T05:15:51;95431.13;;;9.84;47.70
72395;BME280;60384;48.152;11.614;2023-03-19T05:18:53;95430.81;;;9.86;47.62
72395;BME280;60384;48.152;11.614;2023-03-19T05:21:57;95456.88;;;9.89;47.76
72395;BME280;60384;48.152;11.614;2023-03-19T05:25:00;95451.97;;;9.91;47.74
72395;BME280;60384;48.152;11.614;2023-03-19T05:28:05;95454.03;;;9.94;47.63
72395;BME280;60384;48.152;11.614;2023-03-19T05:31:09;95453.72;;;9.95;47.53
72395;BME280;60384;48.152;11.614;2023-03-19T05:34:17;95458.72;;;9.97;47.80
72395;BME280;60384;48.152;11.614;2023-03-19T05:37:19;95462.16;;;9.98;47.88
72395;BME280;60384;48.152;11.614;2023-03-19T05:40:27;95466.72;;;9.97;47.71
72395;BME280;60384;48.152;11.614;2023-03-19T05:43:31;95466.41;;;9.99;47.65
72395;BME280;60384;48.152;11.614;2023-03-19T05:46:39;95472.22;;;10.01;47.77
72395;BME280;60384;48.152;11.614;2023-03-19T05:49:42;95470.78;;;10.03;47.72
72395;BME280;60384;48.152;11.614;2023-03-19T05:52:44;95477.38;;;10.06;48.08
72395;BME280;60384;48.152;11.614;2023-03-19T05:55:45;95482.88;;;10.09;47.99
72395;BME280;60384;48.152;11.614;2023-03-19T05:58:47;95490.69;;;10.14;48.03
72395;BME280;60384;48.152;11.614;2023-03-19T06:01:56;95490.91;;;10.18;47.96
72395;BME280;60384;48.152;11.614;2023-03-19T06:04:58;95500.13;;;10.20;47.52
72395;BME280;60384;48.152;11.614;2023-03-19T06:08:03;95496.53;;;10.25;47.93
72395;BME280;60384;48.152;11.614;2023-03-19T06:11:20;95500.91;;;10.29;47.95
72395;BME280;60384;48.152;11.614;2023-03-19T06:14:31;95510.94;;;10.32;47.73
72395;BME280;60384;48.152;11.614;2023-03-19T06:17:54;95522.09;;;10.34;47.73
72395;BME280;60384;48.152;11.614;2023-03-19T06:20:57;95524.13;;;10.38;47.72
72395;BME280;60384;48.152;11.614;2023-03-19T06:23:59;95535.28;;;10.40;47.45
72395;BME280;60384;48.152;11.614;2023-03-19T06:27:09;95530.25;;;10.38;47.87
72395;BME280;60384;48.152;11.614;2023-03-19T06:30:11;95535.59;;;10.38;48.09
72395;BME280;60384;48.152;11.614;2023-03-19T06:33:15;95547.84;;;10.39;47.81
72395;BME280;60384;48.152;11.614;2023-03-19T06:36:18;95542.34;;;10.44;47.39
72395;BME280;60384;48.152;11.614;2023-03-19T06:39:20;95550.19;;;10.49;47.60
72395;BME280;60384;48.152;11.614;2023-03-19T06:42:22;95559.59;;;10.55;47.80
72395;BME280;60384;48.152;11.614;2023-03-19T06:45:24;95560.38;;;10.56;47.35
72395;BME280;60384;48.152;11.614;2023-03-19T06:48:28;95562.72;;;10.57;47.05
72395;BME280;60384;48.152;11.614;2023-03-19T06:51:30;95567.91;;;10.62;48.10
72395;BME280;60384;48.152;11.614;2023-03-19T06:54:32;95567.91;;;10.62;47.44
72395;BME280;60384;48.152;11.614;2023-03-19T06:57:34;95566.94;;;10.67;47.57
72395;BME280;60384;48.152;11.614;2023-03-19T07:00:36;95567.41;;;10.69;47.91
72395;BME280;60384;48.152;11.614;2023-03-19T07:03:39;95573.69;;;10.73;47.63
72395;BME280;60384;48.152;11.614;2023-03-19T07:06:41;95577.63;;;10.75;47.91
72395;BME280;60384;48.152;11.614;2023-03-19T07:09:43;95589.53;;;10.78;47.80
72395;BME280;60384;48.152;11.614;2023-03-19T07:12:45;95591.59;;;10.81;47.80
72395;BME280;60384;48.152;11.614;2023-03-19T07:15:47;95587.94;;;10.86;48.15
72395;BME280;60384;48.152;11.614;2023-03-19T07:18:50;95601.13;;;10.91;47.56
72395;BME280;60384;48.152;11.614;2023-03-19T07:21:52;95612.75;;;10.95;47.64
72395;BME280;60384;48.152;11.614;2023-03-19T07:24:54;95621.84;;;11.02;48.13
72395;BME280;60384;48.152;11.614;2023-03-19T07:27:55;95624.47;;;11.11;47.62
72395;BME280;60384;48.152;11.614;2023-03-19T07:30:57;95630.59;;;11.20;48.03
72395;BME280;60384;48.152;11.614;2023-03-19T07:34:00;95634.78;;;11.30;47.27
72395;BME280;60384;48.152;11.614;2023-03-19T07:37:02;95633.03;;;11.34;47.48
72395;BME280;60384;48.152;11.614;2023-03-19T07:40:05;95626.94;;;11.33;47.40
72395;BME280;60384;48.152;11.614;2023-03-19T07:43:07;95631.00;;;11.31;47.91
72395;BME280;60384;48.152;11.614;2023-03-19T07:46:09;95640.94;;;11.30;47.69
72395;BME280;60384;48.152;11.614;2023-03-19T07:49:12;95652.88;;;11.33;47.39
72395;BME280;60384;48.152;11.614;2023-03-19T07:52:14;95660.56;;;11.34;47.67
72395;BME280;60384;48.152;11.614;2023-03-19T07:55:18;95649.69;;;11.39;47.61
72395;BME280;60384;48.152;11.614;2023-03-19T07:58:20;95650.63;;;11.43;47.40
72395;BME280;60384;48.152;11.614;2023-03-19T08:01:22;95650.75;;;11.47;48.16
72395;BME280;60384;48.152;11.614;2023-03-19T08:04:25;95652.94;;;11.53;48.14
72395;BME280;60384;48.152;11.614;2023-03-19T08:07:27;95653.22;;;11.60;47.36
72395;BME280;60384;48.152;11.614;2023-03-19T08:10:29;95651.16;;;11.66;47.27
72395;BME280;60384;48.152;11.614;2023-03-19T08:13:31;95650.81;;;11.68;47.39
72395;BME280;60384;48.152;11.614;2023-03-19T08:16:32;95653.94;;;11.70;47.95
72395;BME280;60384;48.152;11.614;2023-03-19T08:19:35;95653.63;;;11.71;47.88
72395;BME280;60384;48.152;11.614;2023-03-19T08:22:38;95655.22;;;11.72;47.54
72395;BME280;60384;48.152;11.614;2023-03-19T08:25:41;95660.56;;;11.72;47.46
72395;BME280;60384;48.152;11.614;2023-03-19T08:28:43;95652.84;;;11.71;48.44
72395;BME280;60384;48.152;11.614;2023-03-19T08:31:44;95651.28;;;11.70;47.90
72395;BME280;60384;48.152;11.614;2023-03-19T08:34:48;95647.81;;;11.69;47.72
72395;BME280;60384;48.152;11.614;2023-03-19T08:37:50;95647.50;;;11.71;48.12
72395;BME280;60384;48.152;11.614;2023-03-19T08:40:54;95658.19;;;11.71;48.11
72395;BME280;60384;48.152;11.614;2023-03-19T08:44:01;95664.19;;;11.68;47.87
72395;BME280;60384;48.152;11.614;2023-03-19T08:47:04;95665.94;;;11.64;48.88
72395;BME280;60384;48.152;11.614;2023-03-19T08:50:08;95675.06;;;11.63;48.90
72395;BME280;60384;48.152;11.614;2023-03-19T08:53:11;95684.22;;;11.62;48.22
72395;BME280;60384;48.152;11.614;2023-03-19T08:56:12;95680.91;;;11.65;48.20
72395;BME280;60384;48.152;11.614;2023-03-19T08:59:15;95681.69;;;11.65;48.16
72395;BME280;60384;48.152;11.614;2023-03-19T09:02:17;95685.59;;;11.68;48.03
72395;BME280;60384;48.152;11.614;2023-03-19T09:05:20;95681.97;;;11.72;48.01
72395;BME280;60384;48.152;11.614;2023-03-19T09:08:23;95691.41;;;11.78;47.48
72395;BME280;60384;48.152;11.614;2023-03-19T09:11:25;95686.66;;;11.84;47.39
72395;BME280;60384;48.152;11.614;2023-03-19T09:14:27;95695.41;;;11.93;47.39
72395;BME280;60384;48.152;11.614;2023-03-19T09:17:29;95696.78;;;11.99;48.73
72395;BME280;60384;48.152;11.614;2023-03-19T09:20:32;95695.50;;;12.05;47.57
72395;BME280;60384;48.152;11.614;2023-03-19T09:23:34;95695.44;;;12.14;48.34
72395;BME280;60384;48.152;11.614;2023-03-19T09:26:36;95693.78;;;12.30;47.21
72395;BME280;60384;48.152;11.614;2023-03-19T09:29:38;95698.00;;;12.52;47.49
72395;BME280;60384;48.152;11.614;2023-03-19T09:32:40;95698.34;;;12.83;47.19
72395;BME280;60384;48.152;11.614;2023-03-19T09:35:48;95694.97;;;13.07;46.71
72395;BME280;60384;48.152;11.614;2023-03-19T09:38:50;95700.53;;;13.22;46.56
72395;BME280;60384;48.152;11.614;2023-03-19T09:42:04;95704.78;;;13.23;46.76
72395;BME280;60384;48.152;11.614;2023-03-19T09:45:13;95709.81;;;13.25;47.14
72395;BME280;60384;48.152;11.614;2023-03-19T09:48:18;95711.25;;;13.22;47.03
72395;BME280;60384;48.152;11.614;2023-03-19T09:51:37;95717.16;;;13.16;47.31
72395;BME280;60384;48.152;11.614;2023-03-19T09:54:44;95714.94;;;13.18;47.63
72395;BME280;60384;48.152;11.614;2023-03-19T09:57:47;95719.75;;;13.24;47.22
72395;BME280;60384;48.152;11.614;2023-03-19T10:00:51;95724.69;;;13.35;47.04
72395;BME280;60384;48.152;11.614;2023-03-19T10:04:06;95722.75;;;13.23;47.41
72395;BME280;60384;48.152;11.614;2023-03-19T10:07:25;95718.97;;;13.24;47.82
72395;BME280;60384;48.152;11.614;2023-03-19T10:10:46;95714.97;;;13.30;47.46
72395;BME280;60384;48.152;11.614;2023-03-19T10:14:01;95709.63;;;13.42;47.14
72395;BME280;60384;48.152;11.614;2023-03-19T10:17:14;95707.72;;;13.67;46.69
72395;BME280;60384;48.152;11.614;2023-03-19T10:20:24;95706.94;;;14.15;46.08
72395;BME280;60384;48.152;11.614;2023-03-19T10:23:40;95704.66;;;14.54;45.75
72395;BME280;60384;48.152;11.614;2023-03-19T10:26:44;95695.19;;;15.00;44.97
72395;BME280;60384;48.152;11.614;2023-03-19T10:29:47;95685.97;;;15.28;44.80
72395;BME280;60384;48.152;11.614;2023-03-19T10:32:50;95696.31;;;15.42;44.83
72395;BME280;60384;48.152;11.614;2023-03-19T10:35:57;95694.97;;;15.64;44.66
72395;BME280;60384;48.152;11.614;2023-03-19T10:39:02;95692.31;;;16.15;43.69
72395;BME280;60384;48.152;11.614;2023-03-19T10:42:17;95690.66;;;16.10;44.25
72395;BME280;60384;48.152;11.614;2023-03-19T10:45:23;95696.81;;;15.32;45.73
72395;BME280;60384;48.152;11.614;2023-03-19T10:48:27;95708.59;;;14.84;46.81
72395;BME280;60384;48.152;11.614;2023-03-19T10:51:30;95701.41;;;14.60;47.30
72395;BME280;60384;48.152;11.614;2023-03-19T10:54:39;95701.78;;;14.34;47.28
72395;BME280;60384;48.152;11.614;2023-03-19T10:57:41;95700.78;;;14.27;47.45
72395;BME280;60384;48.152;11.614;2023-03-19T11:00:45;95704.47;;;14.34;47.66
72395;BME280;60384;48.152;11.614;2023-03-19T11:03:50;95692.94;;;14.46;47.14
72395;BME280;60384;48.152;11.614;2023-03-19T11:06:53;95692.47;;;14.56;47.00
72395;BME280;60384;48.152;11.614;2023-03-19T11:09:57;95680.72;;;14.76;46.91
72395;BME280;60384;48.152;11.614;2023-03-19T11:13:03;95676.78;;;14.86;46.86
72395;BME280;60384;48.152;11.614;2023-03-19T11:16:05;95682.88;;;14.71;46.87
72395;BME280;60384;48.152;11.614;2023-03-19T11:19:17;95683.97;;;14.42;47.43
72395;BME280;60384;48.152;11.614;2023-03-19T11:22:21;95683.63;;;14.31;47.91
72395;BME280;60384;48.152;11.614;2023-03-19T11:25:27;95687.00;;;14.28;47.72
72395;BME280;60384;48.152;11.614;2023-03-19T11:28:30;95675.56;;;14.31;47.82
72395;BME280;60384;48.152;11.614;2023-03-19T11:31:36;95675.03;;;14.38;47.44
72395;BME280;60384;48.152;11.614;2023-03-19T11:34:44;95680.84;;;14.40;47.74
72395;BME280;60384;48.152;11.614;2023-03-19T11:37:53;95678.59;;;14.42;47.59
72395;BME280;60384;48.152;11.614;2023-03-19T11:41:04;95675.66;;;14.47;47.53
72395;BME280;60384;48.152;11.614;2023-03-19T11:44:14;95667.19;;;14.45;47.78
72395;BME280;60384;48.152;11.614;2023-03-19T11:47:21;95669.66;;;14.38;48.04
72395;BME280;60384;48.152;11.614;2023-03-19T11:50:33;95665.59;;;14.44;47.60
72395;BME280;60384;48.152;11.614;2023-03-19T11:53:50;95656.63;;;14.52;47.81
72395;BME280;60384;48.152;11.614;2023-03-19T11:56:58;95658.84;;;14.62;47.61
72395;BME280;60384;48.152;11.614;2023-03-19T12:00:08;95643.97;;;14.80;47.53
72395;BME280;60384;48.152;11.614;2023-03-19T12:03:40;95646.19;;;15.06;47.25
72395;BME280;60384;48.152;11.614;2023-03-19T12:06:52;95628.66;;;15.28;46.76
72395;BME280;60384;48.152;11.614;2023-03-19T12:10:21;95648.91;;;15.38;47.14
72395;BME280;60384;48.152;11.614;2023-03-19T12:13:36;95639.44;;;15.75;46.17
72395;BME280;60384;48.152;11.614;2023-03-19T12:16:51;95634.53;;;16.89;44.96
72395;BME280;60384;48.152;11.614;2023-03-19T12:20:12;95624.47;;;17.31;44.41
72395;BME280;60384;48.152;11.614;2023-03-19T12:23:30;95626.63;;;17.91;43.95
72395;BME280;60384;48.152;11.614;2023-03-19T12:26:41;95616.31;;;18.56;43.46
72395;BME280;60384;48.152;11.614;2023-03-19T12:29:56;95606.66;;;19.29;42.42
72395;BME280;60384;48.152;11.614;2023-03-19T12:33:21;95601.91;;;19.63;42.61
72395;BME280;60384;48.152;11.614;2023-03-19T12:36:29;95602.69;;;20.25;41.80
72395;BME280;60384;48.152;11.614;2023-03-19T12:39:34;95594.84;;;20.92;41.44
72395;BME280;60384;48.152;11.614;2023-03-19T12:42:39;95590.25;;;21.89;40.29
72395;BME280;60384;48.152;11.614;2023-03-19T12:45:44;95590.84;;;22.63;40.01
72395;BME280;60384;48.152;11.614;2023-03-19T12:48:51;95590.66;;;23.06;39.50
72395;BME280;60384;48.152;11.614;2023-03-19T12:51:59;95593.97;;;22.62;41.00
72395;BME280;60384;48.152;11.614;2023-03-19T12:55:08;95586.75;;;22.06;41.66
72395;BME280;60384;48.152;11.614;2023-03-19T12:58:19;95583.91;;;22.55;40.86
72395;BME280;60384;48.152;11.614;2023-03-19T13:01:26;95584.44;;;21.76;42.42
72395;BME280;60384;48.152;11.614;2023-03-19T13:04:34;95585.09;;;20.77;43.86
72395;BME280;60384;48.152;11.614;2023-03-19T13:07:45;95590.91;;;19.93;45.50
72395;BME280;60384;48.152;11.614;2023-03-19T13:10:49;95576.44;;;19.27;46.11
72395;BME280;60384;48.152;11.614;2023-03-19T13:13:54;95580.94;;;18.72;46.62
72395;BME280;60384;48.152;11.614;2023-03-19T13:17:01;95583.16;;;18.33;47.32
72395;BME280;60384;48.152;11.614;2023-03-19T13:20:15;95581.28;;;18.07;47.33
72395;BME280;60384;48.152;11.614;2023-03-19T13:23:22;95574.25;;;18.02;47.16
72395;BME280;60384;48.152;11.614;2023-03-19T13:26:25;95578.06;;;17.98;47.48
72395;BME280;60384;48.152;11.614;2023-03-19T13:29:28;95577.16;;;17.87;47.20
72395;BME280;60384;48.152;11.614;2023-03-19T13:32:37;95573.03;;;17.70;47.16
72395;BME280;60384;48.152;11.614;2023-03-19T13:35:42;95585.13;;;17.53;46.89
72395;BME280;60384;48.152;11.614;2023-03-19T13:38:47;95580.09;;;17.29;47.72
72395;BME280;60384;48.152;11.614;2023-03-19T13:41:52;95578.66;;;17.12;48.06
72395;BME280;60384;48.152;11.614;2023-03-19T13:45:02;95575.16;;;16.89;48.23
72395;BME280;60384;48.152;11.614;2023-03-19T13:48:33;95569.81;;;16.70;48.25
72395;BME280;60384;48.152;11.614;2023-03-19T13:51:35;95572.13;;;16.52;48.21
72395;BME280;60384;48.152;11.614;2023-03-19T13:54:38;95557.31;;;16.42;48.50
72395;BME280;60384;48.152;11.614;2023-03-19T13:57:53;95566.03;;;16.36;47.90
72395;BME280;60384;48.152;11.614;2023-03-19T14:01:01;95558.59;;;16.29;48.35
72395;BME280;60384;48.152;11.614;2023-03-19T14:04:05;95556.97;;;16.25;48.76
72395;BME280;60384;48.152;11.614;2023-03-19T14:07:10;95566.47;;;16.19;48.17
72395;BME280;60384;48.152;11.614;2023-03-19T14:10:15;95567.09;;;16.12;48.54
72395;BME280;60384;48.152;11.614;2023-03-19T14:13:26;95570.09;;;16.07;48.25
72395;BME280;60384;48.152;11.614;2023-03-19T14:16:32;95561.09;;;15.99;48.34
72395;BME280;60384;48.152;11.614;2023-03-19T14:19:40;95553.91;;;15.88;48.20
72395;BME280;60384;48.152;11.614;2023-03-19T14:22:53;95557.44;;;15.92;48.56
72395;BME280;60384;48.152;11.614;2023-03-19T14:26:03;95552.94;;;16.15;47.60
72395;BME280;60384;48.152;11.614;2023-03-19T14:29:06;95554.91;;;16.57;47.46
72395;BME280;60384;48.152;11.614;2023-03-19T14:32:14;95548.38;;;17.00;46.51
72395;BME280;60384;48.152;11.614;2023-03-19T14:35:19;95539.66;;;17.10;46.64
72395;BME280;60384;48.152;11.614;2023-03-19T14:38:28;95542.34;;;17.10;46.56
72395;BME280;60384;48.152;11.614;2023-03-19T14:41:34;95544.16;;;17.25;46.49
72395;BME280;60384;48.152;11.614;2023-03-19T14:48:42;95539.13;;;18.36;45.27
72395;BME280;60384;48.152;11.614;2023-03-19T14:51:56;95538.22;;;18.54;45.63
72395;BME280;60384;48.152;11.614;2023-03-19T14:55:02;95531.53;;;18.82;45.14
72395;BME280;60384;48.152;11.614;2023-03-19T14:58:09;95521.91;;;18.84;45.05
72395;BME280;60384;48.152;11.614;2023-03-19T15:01:11;95533.97;;;18.94;45.28
72395;BME280;60384;48.152;11.614;2023-03-19T15:04:14;95523.16;;;18.97;45.35
72395;BME280;60384;48.152;11.614;2023-03-19T15:07:21;95526.63;;;18.94;45.39
72395;BME280;60384;48.152;11.614;2023-03-19T15:10:28;95521.94;;;18.88;45.65
72395;BME280;60384;48.152;11.614;2023-03-19T15:13:38;95510.66;;;18.82;45.76
72395;BME280;60384;48.152;11.614;2023-03-19T15:16:46;95513.28;;;18.72;45.90
72395;BME280;60384;48.152;11.614;2023-03-19T15:19:58;95517.66;;;18.50;46.38
72395;BME280;60384;48.152;11.614;2023-03-19T15:23:04;95511.31;;;18.35;46.44
72395;BME280;60384;48.152;11.614;2023-03-19T15:26:07;95511.53;;;18.20;46.66
72395;BME280;60384;48.152;11.614;2023-03-19T15:29:11;95517.81;;;17.97;46.86
72395;BME280;60384;48.152;11.614;2023-03-19T15:32:29;95514.53;;;17.81;46.93
72395;BME280;60384;48.152;11.614;2023-03-19T15:35:32;95514.38;;;17.70;47.35
72395;BME280;60384;48.152;11.614;2023-03-19T15:38:40;95517.34;;;17.62;47.32
72395;BME280;60384;48.152;11.614;2023-03-19T15:41:45;95520.22;;;17.50;47.12
72395;BME280;60384;48.152;11.614;2023-03-19T15:44:52;95525.13;;;17.41;47.39
72395;BME280;60384;48.152;11.614;2023-03-19T15:47:58;95513.03;;;17.31;47.39
72395;BME280;60384;48.152;11.614;2023-03-19T15:51:04;95517.09;;;17.21;47.47
72395;BME280;60384;48.152;11.614;2023-03-19T15:54:09;95518.16;;;17.13;47.56
72395;BME280;60384;48.152;11.614;2023-03-19T15:57:12;95514.91;;;17.04;47.62
72395;BME280;60384;48.152;11.614;2023-03-19T16:00:16;95517.50;;;16.97;47.51
72395;BME280;60384;48.152;11.614;2023-03-19T16:03:21;95517.38;;;16.90;47.58
72395;BME280;60384;48.152;11.614;2023-03-19T16:06:27;95515.28;;;16.80;47.84
72395;BME280;60384;48.152;11.614;2023-03-19T16:09:33;95515.16;;;16.73;47.55
72395;BME280;60384;48.152;11.614;2023-03-19T16:12:36;95519.28;;;16.67;47.85
72395;BME280;60384;48.152;11.614;2023-03-19T16:15:41;95516.44;;;16.60;47.69